sensor_id;sensor_type;location;lat;lon;timestamp;temperature;humidity
4896;DHT22;2463;49.948;8.472;2022-08-02T00:00:09;20.70;99.90
4896;DHT22;2463;49.948;8.472;2022-08-02T00:02:37;20.70;99.90
4896;DHT22;2463;49.948;8.472;2022-08-02T00:05:04;20.70;99.90
4896;DHT22;2463;49.948;8.472;2022-08-02T00:07:32;20.70;99.90
4896;DHT22;2463;49.948;8.472;2022-08-02T00:10:07;20.70;99.90
4896;DHT22;2463;49.948;8.472;2022-08-02T00:12:34;20.70;99.90
4896;DHT22;2463;49.948;8.472;2022-08-02T00:15:01;20.70;99.90
4896;DHT22;2463;49.948;8.472;2022-08-02T00:17:28;20.60;99.90
4896;DHT22;2463;49.948;8.472;2022-08-02T00:19:54;20.60;99.90
4896;DHT22;2463;49.948;8.472;2022-08-02T00:22:21;20.60;99.90
4896;DHT22;2463;49.948;8.472;2022-08-02T00:24:48;20.60;99.90
4896;DHT22;2463;49.948;8.472;2022-08-02T00:27:15;20.50;99.90
4896;DHT22;2463;49.948;8.472;2022-08-02T00:29:41;20.40;99.90
4896;DHT22;2463;49.948;8.472;2022-08-02T00:32:19;20.20;99.90
4896;DHT22;2463;49.948;8.472;2022-08-02T00:34:46;20.10;99.90
4896;DHT22;2463;49.948;8.472;2022-08-02T00:37:13;20.00;99.90
4896;DHT22;2463;49.948;8.472;2022-08-02T00:39:41;19.90;99.90
4896;DHT22;2463;49.948;8.472;2022-08-02T00:42:08;19.80;99.90
4896;DHT22;2463;49.948;8.472;2022-08-02T00:44:36;19.70;99.90
4896;DHT22;2463;49.948;8.472;2022-08-02T00:47:02;19.70;99.90
4896;DHT22;2463;49.948;8.472;2022-08-02T00:49:29;19.70;99.90
4896;DHT22;2463;49.948;8.472;2022-08-02T00:51:58;19.70;99.90
4896;DHT22;2463;49.948;8.472;2022-08-02T00:54:25;19.70;99.90
4896;DHT22;2463;49.948;8.472;2022-08-02T00:56:52;19.70;99.90
4896;DHT22;2463;49.948;8.472;2022-08-02T00:59:19;19.70;99.90
4896;DHT22;2463;49.948;8.472;2022-08-02T01:01:46;19.60;99.90
4896;DHT22;2463;49.948;8.472;2022-08-02T01:04:22;19.50;99.90
4896;DHT22;2463;49.948;8.472;2022-08-02T01:07:01;19.60;99.90
4896;DHT22;2463;49.948;8.472;2022-08-02T01:09:40;19.60;99.90
4896;DHT22;2463;49.948;8.472;2022-08-02T01:12:07;19.50;99.90
4896;DHT22;2463;49.948;8.472;2022-08-02T01:14:35;19.50;99.90
4896;DHT22;2463;49.948;8.472;2022-08-02T01:28:38;19.50;99.90
4896;DHT22;2463;49.948;8.472;2022-08-02T01:31:15;19.40;99.90
4896;DHT22;2463;49.948;8.472;2022-08-02T01:33:50;19.40;99.90
4896;DHT22;2463;49.948;8.472;2022-08-02T01:36:20;19.40;99.90
4896;DHT22;2463;49.948;8.472;2022-08-02T01:38:50;19.30;99.90
4896;DHT22;2463;49.948;8.472;2022-08-02T01:41:22;19.30;99.90
4896;DHT22;2463;49.948;8.472;2022-08-02T01:43:52;19.30;99.90
4896;DHT22;2463;49.948;8.472;2022-08-02T01:46:21;19.20;99.90
4896;DHT22;2463;49.948;8.472;2022-08-02T01:48:49;19.20;99.90
4896;DHT22;2463;49.948;8.472;2022-08-02T01:51:17;19.10;99.90
4896;DHT22;2463;49.948;8.472;2022-08-02T01:53:49;18.90;99.90
4896;DHT22;2463;49.948;8.472;2022-08-02T01:56:17;18.90;99.90
4896;DHT22;2463;49.948;8.472;2022-08-02T01:58:45;18.80;99.90
4896;DHT22;2463;49.948;8.472;2022-08-02T02:01:13;18.70;99.90
4896;DHT22;2463;49.948;8.472;2022-08-02T02:03:45;18.70;99.90
4896;DHT22;2463;49.948;8.472;2022-08-02T02:06:14;18.70;99.90
4896;DHT22;2463;49.948;8.472;2022-08-02T02:08:42;18.70;99.90
4896;DHT22;2463;49.948;8.472;2022-08-02T02:11:10;18.60;99.90
4896;DHT22;2463;49.948;8.472;2022-08-02T02:13:57;18.50;99.90
4896;DHT22;2463;49.948;8.472;2022-08-02T02:16:27;18.40;99.90
4896;DHT22;2463;49.948;8.472;2022-08-02T02:18:54;18.40;99.90
4896;DHT22;2463;49.948;8.472;2022-08-02T02:21:21;18.30;99.90
4896;DHT22;2463;49.948;8.472;2022-08-02T02:23:48;18.20;99.90
4896;DHT22;2463;49.948;8.472;2022-08-02T02:26:17;18.20;99.90
4896;DHT22;2463;49.948;8.472;2022-08-02T02:29:00;18.20;99.90
4896;DHT22;2463;49.948;8.472;2022-08-02T02:31:31;18.30;99.90
4896;DHT22;2463;49.948;8.472;2022-08-02T02:34:07;18.10;99.90
4896;DHT22;2463;49.948;8.472;2022-08-02T02:36:38;18.30;99.90
4896;DHT22;2463;49.948;8.472;2022-08-02T02:39:06;18.10;99.90
4896;DHT22;2463;49.948;8.472;2022-08-02T02:41:40;18.10;99.90
4896;DHT22;2463;49.948;8.472;2022-08-02T02:44:10;18.10;99.90
4896;DHT22;2463;49.948;8.472;2022-08-02T02:46:39;18.20;99.90
4896;DHT22;2463;49.948;8.472;2022-08-02T02:49:09;18.20;99.90
4896;DHT22;2463;49.948;8.472;2022-08-02T02:51:39;18.20;99.90
4896;DHT22;2463;49.948;8.472;2022-08-02T02:54:08;18.20;99.90
4896;DHT22;2463;49.948;8.472;2022-08-02T02:56:57;18.20;99.90
4896;DHT22;2463;49.948;8.472;2022-08-02T02:59:25;18.20;99.90
4896;DHT22;2463;49.948;8.472;2022-08-02T03:01:52;18.20;99.90
4896;DHT22;2463;49.948;8.472;2022-08-02T03:04:23;18.20;99.90
4896;DHT22;2463;49.948;8.472;2022-08-02T03:06:50;18.30;99.90
4896;DHT22;2463;49.948;8.472;2022-08-02T03:09:17;18.30;99.90
4896;DHT22;2463;49.948;8.472;2022-08-02T03:11:44;18.30;99.90
4896;DHT22;2463;49.948;8.472;2022-08-02T03:14:11;18.30;99.90
4896;DHT22;2463;49.948;8.472;2022-08-02T03:19:09;18.40;99.90
4896;DHT22;2463;49.948;8.472;2022-08-02T03:21:36;18.40;99.90
4896;DHT22;2463;49.948;8.472;2022-08-02T03:24:03;18.30;99.90
4896;DHT22;2463;49.948;8.472;2022-08-02T03:26:30;18.30;99.90
4896;DHT22;2463;49.948;8.472;2022-08-02T03:28:57;18.30;99.90
4896;DHT22;2463;49.948;8.472;2022-08-02T03:31:24;18.20;99.90
4896;DHT22;2463;49.948;8.472;2022-08-02T03:33:51;18.20;99.90
4896;DHT22;2463;49.948;8.472;2022-08-02T03:36:20;18.20;99.90
4896;DHT22;2463;49.948;8.472;2022-08-02T03:38:49;18.20;99.90
4896;DHT22;2463;49.948;8.472;2022-08-02T03:41:17;18.20;99.90
4896;DHT22;2463;49.948;8.472;2022-08-02T03:43:46;18.10;99.90
4896;DHT22;2463;49.948;8.472;2022-08-02T03:46:16;18.10;99.90
4896;DHT22;2463;49.948;8.472;2022-08-02T03:48:43;18.00;99.90
4896;DHT22;2463;49.948;8.472;2022-08-02T03:51:10;17.90;99.90
4896;DHT22;2463;49.948;8.472;2022-08-02T03:53:37;17.80;99.90
4896;DHT22;2463;49.948;8.472;2022-08-02T03:56:05;17.80;99.90
4896;DHT22;2463;49.948;8.472;2022-08-02T03:58:33;17.70;99.90
4896;DHT22;2463;49.948;8.472;2022-08-02T04:00:59;17.60;99.90
4896;DHT22;2463;49.948;8.472;2022-08-02T04:03:26;17.70;99.90
4896;DHT22;2463;49.948;8.472;2022-08-02T04:05:53;17.70;99.90
4896;DHT22;2463;49.948;8.472;2022-08-02T04:08:29;17.70;99.90
4896;DHT22;2463;49.948;8.472;2022-08-02T04:11:03;17.70;99.90
4896;DHT22;2463;49.948;8.472;2022-08-02T04:13:48;17.60;99.90
4896;DHT22;2463;49.948;8.472;2022-08-02T04:16:20;17.60;99.90
4896;DHT22;2463;49.948;8.472;2022-08-02T04:18:55;17.60;99.90
4896;DHT22;2463;49.948;8.472;2022-08-02T04:21:25;17.60;99.90
4896;DHT22;2463;49.948;8.472;2022-08-02T04:24:13;17.60;99.90
4896;DHT22;2463;49.948;8.472;2022-08-02T04:26:45;17.60;99.90
4896;DHT22;2463;49.948;8.472;2022-08-02T04:29:16;17.40;99.90
4896;DHT22;2463;49.948;8.472;2022-08-02T04:31:44;17.50;99.90
4896;DHT22;2463;49.948;8.472;2022-08-02T04:34:11;17.40;99.90
4896;DHT22;2463;49.948;8.472;2022-08-02T04:36:41;17.40;99.90
4896;DHT22;2463;49.948;8.472;2022-08-02T04:39:08;17.40;99.90
4896;DHT22;2463;49.948;8.472;2022-08-02T04:41:42;17.40;99.90
4896;DHT22;2463;49.948;8.472;2022-08-02T04:44:10;17.30;99.90
4896;DHT22;2463;49.948;8.472;2022-08-02T04:46:38;17.20;99.90
4896;DHT22;2463;49.948;8.472;2022-08-02T04:49:05;17.30;99.90
4896;DHT22;2463;49.948;8.472;2022-08-02T04:51:39;17.30;99.90
4896;DHT22;2463;49.948;8.472;2022-08-02T04:54:08;17.40;99.90
4896;DHT22;2463;49.948;8.472;2022-08-02T04:56:39;17.40;99.90
4896;DHT22;2463;49.948;8.472;2022-08-02T04:59:06;17.50;99.90
4896;DHT22;2463;49.948;8.472;2022-08-02T05:01:33;17.60;99.90
4896;DHT22;2463;49.948;8.472;2022-08-02T05:04:02;17.70;99.90
4896;DHT22;2463;49.948;8.472;2022-08-02T05:06:28;17.70;99.90
4896;DHT22;2463;49.948;8.472;2022-08-02T05:08:55;17.70;99.90
4896;DHT22;2463;49.948;8.472;2022-08-02T05:11:23;17.80;99.90
4896;DHT22;2463;49.948;8.472;2022-08-02T05:14:03;17.80;99.90
4896;DHT22;2463;49.948;8.472;2022-08-02T05:16:29;17.90;99.90
4896;DHT22;2463;49.948;8.472;2022-08-02T05:18:59;18.00;99.90
4896;DHT22;2463;49.948;8.472;2022-08-02T05:21:27;18.10;99.90
4896;DHT22;2463;49.948;8.472;2022-08-02T05:23:54;18.10;99.90
4896;DHT22;2463;49.948;8.472;2022-08-02T05:26:20;18.20;99.90
4896;DHT22;2463;49.948;8.472;2022-08-02T05:28:47;18.30;99.90
4896;DHT22;2463;49.948;8.472;2022-08-02T05:31:14;18.30;99.90
4896;DHT22;2463;49.948;8.472;2022-08-02T05:33:40;18.40;99.90
4896;DHT22;2463;49.948;8.472;2022-08-02T05:36:07;18.50;99.90
4896;DHT22;2463;49.948;8.472;2022-08-02T05:38:35;18.60;99.90
4896;DHT22;2463;49.948;8.472;2022-08-02T05:41:04;18.70;99.90
4896;DHT22;2463;49.948;8.472;2022-08-02T05:43:31;18.80;99.90
4896;DHT22;2463;49.948;8.472;2022-08-02T05:45:58;18.90;99.90
4896;DHT22;2463;49.948;8.472;2022-08-02T05:48:25;18.90;99.90
4896;DHT22;2463;49.948;8.472;2022-08-02T05:51:09;19.00;99.90
4896;DHT22;2463;49.948;8.472;2022-08-02T05:53:50;19.10;99.90
4896;DHT22;2463;49.948;8.472;2022-08-02T05:56:23;19.20;99.90
4896;DHT22;2463;49.948;8.472;2022-08-02T05:59:11;19.30;99.90
4896;DHT22;2463;49.948;8.472;2022-08-02T06:01:39;19.50;99.90
4896;DHT22;2463;49.948;8.472;2022-08-02T06:04:10;19.60;99.90
4896;DHT22;2463;49.948;8.472;2022-08-02T06:06:43;19.70;99.90
4896;DHT22;2463;49.948;8.472;2022-08-02T06:09:16;19.90;99.90
4896;DHT22;2463;49.948;8.472;2022-08-02T06:11:53;20.10;99.90
4896;DHT22;2463;49.948;8.472;2022-08-02T06:14:31;20.20;99.90
4896;DHT22;2463;49.948;8.472;2022-08-02T06:17:02;20.50;99.90
4896;DHT22;2463;49.948;8.472;2022-08-02T06:19:31;20.60;99.90
4896;DHT22;2463;49.948;8.472;2022-08-02T06:22:18;20.90;99.90
4896;DHT22;2463;49.948;8.472;2022-08-02T06:25:02;21.20;99.90
4896;DHT22;2463;49.948;8.472;2022-08-02T06:27:29;21.40;99.90
4896;DHT22;2463;49.948;8.472;2022-08-02T06:29:56;21.70;99.90
4896;DHT22;2463;49.948;8.472;2022-08-02T06:32:26;22.20;99.90
4896;DHT22;2463;49.948;8.472;2022-08-02T06:34:53;22.90;99.90
4896;DHT22;2463;49.948;8.472;2022-08-02T06:37:30;23.80;99.90
4896;DHT22;2463;49.948;8.472;2022-08-02T06:40:05;24.70;99.90
4896;DHT22;2463;49.948;8.472;2022-08-02T06:42:48;25.30;99.90
4896;DHT22;2463;49.948;8.472;2022-08-02T06:45:17;25.60;99.90
4896;DHT22;2463;49.948;8.472;2022-08-02T06:47:44;26.00;99.90
4896;DHT22;2463;49.948;8.472;2022-08-02T06:50:11;26.40;99.90
4896;DHT22;2463;49.948;8.472;2022-08-02T06:52:37;26.90;99.90
4896;DHT22;2463;49.948;8.472;2022-08-02T06:55:05;27.60;99.90
4896;DHT22;2463;49.948;8.472;2022-08-02T06:57:32;28.80;99.90
4896;DHT22;2463;49.948;8.472;2022-08-02T06:59:59;30.20;99.90
4896;DHT22;2463;49.948;8.472;2022-08-02T07:02:29;31.60;99.90
4896;DHT22;2463;49.948;8.472;2022-08-02T07:04:56;32.60;99.90
4896;DHT22;2463;49.948;8.472;2022-08-02T07:07:23;33.70;99.10
4896;DHT22;2463;49.948;8.472;2022-08-02T07:09:50;34.40;98.70
4896;DHT22;2463;49.948;8.472;2022-08-02T07:12:30;35.00;98.30
4896;DHT22;2463;49.948;8.472;2022-08-02T07:15:03;35.50;96.90
4896;DHT22;2463;49.948;8.472;2022-08-02T07:17:31;36.00;95.80
4896;DHT22;2463;49.948;8.472;2022-08-02T07:19:58;36.20;92.50
4896;DHT22;2463;49.948;8.472;2022-08-02T07:22:26;36.30;92.60
4896;DHT22;2463;49.948;8.472;2022-08-02T07:24:58;36.10;93.00
4896;DHT22;2463;49.948;8.472;2022-08-02T07:27:25;35.90;93.20
4896;DHT22;2463;49.948;8.472;2022-08-02T07:29:53;35.60;93.80
4896;DHT22;2463;49.948;8.472;2022-08-02T07:32:23;35.50;93.00
4896;DHT22;2463;49.948;8.472;2022-08-02T07:34:52;35.20;93.20
4896;DHT22;2463;49.948;8.472;2022-08-02T07:37:26;34.70;93.00
4896;DHT22;2463;49.948;8.472;2022-08-02T07:40:13;34.40;93.60
4896;DHT22;2463;49.948;8.472;2022-08-02T07:42:48;33.80;94.80
4896;DHT22;2463;49.948;8.472;2022-08-02T07:45:15;33.20;93.90
4896;DHT22;2463;49.948;8.472;2022-08-02T07:47:43;32.90;95.00
4896;DHT22;2463;49.948;8.472;2022-08-02T07:50:12;32.40;95.80
4896;DHT22;2463;49.948;8.472;2022-08-02T07:52:40;32.20;94.50
4896;DHT22;2463;49.948;8.472;2022-08-02T07:55:08;31.80;96.70
4896;DHT22;2463;49.948;8.472;2022-08-02T07:57:36;31.50;97.50
4896;DHT22;2463;49.948;8.472;2022-08-02T08:00:07;31.40;97.40
4896;DHT22;2463;49.948;8.472;2022-08-02T08:02:37;31.40;97.90
4896;DHT22;2463;49.948;8.472;2022-08-02T08:05:05;31.30;98.20
4896;DHT22;2463;49.948;8.472;2022-08-02T08:07:33;31.20;97.80
4896;DHT22;2463;49.948;8.472;2022-08-02T08:10:00;31.30;97.20
4896;DHT22;2463;49.948;8.472;2022-08-02T08:12:27;31.30;99.10
4896;DHT22;2463;49.948;8.472;2022-08-02T08:14:54;31.30;98.30
4896;DHT22;2463;49.948;8.472;2022-08-02T08:17:21;31.30;98.10
4896;DHT22;2463;49.948;8.472;2022-08-02T08:19:48;31.40;97.40
4896;DHT22;2463;49.948;8.472;2022-08-02T08:22:20;31.40;96.40
4896;DHT22;2463;49.948;8.472;2022-08-02T08:24:48;31.50;96.50
4896;DHT22;2463;49.948;8.472;2022-08-02T08:27:18;31.70;96.10
4896;DHT22;2463;49.948;8.472;2022-08-02T08:29:48;31.80;95.50
4896;DHT22;2463;49.948;8.472;2022-08-02T08:32:15;31.80;94.70
4896;DHT22;2463;49.948;8.472;2022-08-02T08:34:44;31.90;95.30
4896;DHT22;2463;49.948;8.472;2022-08-02T08:37:11;32.10;94.90
4896;DHT22;2463;49.948;8.472;2022-08-02T08:39:47;32.20;94.30
4896;DHT22;2463;49.948;8.472;2022-08-02T08:42:25;32.30;92.60
4896;DHT22;2463;49.948;8.472;2022-08-02T08:44:54;32.20;90.80
4896;DHT22;2463;49.948;8.472;2022-08-02T08:47:22;32.10;92.70
4896;DHT22;2463;49.948;8.472;2022-08-02T08:49:51;32.30;92.80
4896;DHT22;2463;49.948;8.472;2022-08-02T08:52:22;32.40;93.40
4896;DHT22;2463;49.948;8.472;2022-08-02T08:54:51;32.60;92.20
4896;DHT22;2463;49.948;8.472;2022-08-02T08:57:19;32.60;91.60
4896;DHT22;2463;49.948;8.472;2022-08-02T08:59:46;32.60;91.50
4896;DHT22;2463;49.948;8.472;2022-08-02T09:02:14;32.60;92.00
4896;DHT22;2463;49.948;8.472;2022-08-02T09:04:48;32.80;91.00
4896;DHT22;2463;49.948;8.472;2022-08-02T09:07:21;33.00;91.10
4896;DHT22;2463;49.948;8.472;2022-08-02T09:09:47;32.90;88.60
4896;DHT22;2463;49.948;8.472;2022-08-02T09:12:18;32.80;90.70
4896;DHT22;2463;49.948;8.472;2022-08-02T09:14:47;32.90;90.50
4896;DHT22;2463;49.948;8.472;2022-08-02T09:17:17;33.00;90.70
4896;DHT22;2463;49.948;8.472;2022-08-02T09:19:44;33.20;90.70
4896;DHT22;2463;49.948;8.472;2022-08-02T09:22:13;33.60;90.60
4896;DHT22;2463;49.948;8.472;2022-08-02T09:24:44;33.80;86.90
4896;DHT22;2463;49.948;8.472;2022-08-02T09:27:16;33.80;85.90
4896;DHT22;2463;49.948;8.472;2022-08-02T09:29:51;33.80;82.60
4896;DHT22;2463;49.948;8.472;2022-08-02T09:32:47;33.60;84.30
4896;DHT22;2463;49.948;8.472;2022-08-02T09:35:36;33.50;85.90
4896;DHT22;2463;49.948;8.472;2022-08-02T09:38:23;33.50;88.60
4896;DHT22;2463;49.948;8.472;2022-08-02T09:40:51;33.50;84.60
4896;DHT22;2463;49.948;8.472;2022-08-02T09:43:18;33.40;81.00
4896;DHT22;2463;49.948;8.472;2022-08-02T09:45:46;33.10;88.00
4896;DHT22;2463;49.948;8.472;2022-08-02T09:48:13;33.10;80.00
4896;DHT22;2463;49.948;8.472;2022-08-02T09:50:40;32.90;79.50
4896;DHT22;2463;49.948;8.472;2022-08-02T09:53:11;32.90;83.30
4896;DHT22;2463;49.948;8.472;2022-08-02T09:55:40;33.30;83.20
4896;DHT22;2463;49.948;8.472;2022-08-02T09:58:18;33.80;83.10
4896;DHT22;2463;49.948;8.472;2022-08-02T10:00:56;34.10;77.50
4896;DHT22;2463;49.948;8.472;2022-08-02T10:03:24;34.30;80.10
4896;DHT22;2463;49.948;8.472;2022-08-02T10:06:01;34.50;78.40
4896;DHT22;2463;49.948;8.472;2022-08-02T10:08:30;34.70;76.00
4896;DHT22;2463;49.948;8.472;2022-08-02T10:11:00;34.50;80.20
4896;DHT22;2463;49.948;8.472;2022-08-02T10:13:33;34.10;73.70
4896;DHT22;2463;49.948;8.472;2022-08-02T10:16:01;34.10;77.00
4896;DHT22;2463;49.948;8.472;2022-08-02T10:18:29;33.90;75.50
4896;DHT22;2463;49.948;8.472;2022-08-02T10:22:02;33.80;77.70
4896;DHT22;2463;49.948;8.472;2022-08-02T10:24:08;34.30;79.60
4896;DHT22;2463;49.948;8.472;2022-08-02T10:26:40;34.40;73.20
4896;DHT22;2463;49.948;8.472;2022-08-02T10:29:08;34.70;74.50
4896;DHT22;2463;49.948;8.472;2022-08-02T10:31:43;35.10;76.00
4896;DHT22;2463;49.948;8.472;2022-08-02T10:34:17;35.50;74.90
4896;DHT22;2463;49.948;8.472;2022-08-02T10:36:44;35.80;73.00
4896;DHT22;2463;49.948;8.472;2022-08-02T10:39:12;36.20;71.90
4896;DHT22;2463;49.948;8.472;2022-08-02T10:44:06;36.80;71.60
4896;DHT22;2463;49.948;8.472;2022-08-02T10:46:51;37.00;67.90
4896;DHT22;2463;49.948;8.472;2022-08-02T10:49:19;36.90;70.70
4896;DHT22;2463;49.948;8.472;2022-08-02T10:52:07;36.50;67.80
4896;DHT22;2463;49.948;8.472;2022-08-02T10:55:17;36.30;67.00
4896;DHT22;2463;49.948;8.472;2022-08-02T10:57:29;36.40;69.00
4896;DHT22;2463;49.948;8.472;2022-08-02T11:00:01;36.60;65.10
4896;DHT22;2463;49.948;8.472;2022-08-02T11:02:38;36.60;67.70
4896;DHT22;2463;49.948;8.472;2022-08-02T11:05:17;36.90;65.20
4896;DHT22;2463;49.948;8.472;2022-08-02T11:07:46;36.80;63.60
4896;DHT22;2463;49.948;8.472;2022-08-02T11:10:31;37.00;65.20
4896;DHT22;2463;49.948;8.472;2022-08-02T11:15:27;36.50;62.80
4896;DHT22;2463;49.948;8.472;2022-08-02T11:17:56;36.20;61.10
4896;DHT22;2463;49.948;8.472;2022-08-02T11:20:26;36.10;64.10
4896;DHT22;2463;49.948;8.472;2022-08-02T11:22:54;36.20;64.20
4896;DHT22;2463;49.948;8.472;2022-08-02T11:27:55;36.80;60.60
4896;DHT22;2463;49.948;8.472;2022-08-02T11:30:24;37.10;64.80
4896;DHT22;2463;49.948;8.472;2022-08-02T11:32:59;37.30;61.70
4896;DHT22;2463;49.948;8.472;2022-08-02T11:35:37;37.20;59.50
4896;DHT22;2463;49.948;8.472;2022-08-02T11:38:18;37.00;60.70
4896;DHT22;2463;49.948;8.472;2022-08-02T11:40:45;37.10;60.30
4896;DHT22;2463;49.948;8.472;2022-08-02T11:43:23;37.10;60.40
4896;DHT22;2463;49.948;8.472;2022-08-02T11:45:51;37.00;59.50
4896;DHT22;2463;49.948;8.472;2022-08-02T11:48:37;37.20;57.50
4896;DHT22;2463;49.948;8.472;2022-08-02T11:51:09;37.30;57.60
4896;DHT22;2463;49.948;8.472;2022-08-02T11:53:50;37.30;61.00
4896;DHT22;2463;49.948;8.472;2022-08-02T11:56:25;37.60;60.30
4896;DHT22;2463;49.948;8.472;2022-08-02T11:59:07;37.80;58.40
4896;DHT22;2463;49.948;8.472;2022-08-02T12:01:37;37.70;58.60
4896;DHT22;2463;49.948;8.472;2022-08-02T12:04:16;37.60;57.40
4896;DHT22;2463;49.948;8.472;2022-08-02T12:06:43;37.50;56.60
4896;DHT22;2463;49.948;8.472;2022-08-02T12:09:18;37.30;55.10
4896;DHT22;2463;49.948;8.472;2022-08-02T12:11:49;37.10;58.00
4896;DHT22;2463;49.948;8.472;2022-08-02T12:14:19;37.40;59.80
4896;DHT22;2463;49.948;8.472;2022-08-02T12:16:47;37.70;59.70
4896;DHT22;2463;49.948;8.472;2022-08-02T12:19:34;37.80;55.60
4896;DHT22;2463;49.948;8.472;2022-08-02T12:24:42;38.20;58.50
4896;DHT22;2463;49.948;8.472;2022-08-02T12:27:09;38.10;56.60
4896;DHT22;2463;49.948;8.472;2022-08-02T12:29:58;37.90;56.10
4896;DHT22;2463;49.948;8.472;2022-08-02T12:32:25;37.20;55.30
4896;DHT22;2463;49.948;8.472;2022-08-02T12:37:38;36.50;57.90
4896;DHT22;2463;49.948;8.472;2022-08-02T12:42:57;36.10;58.60
4896;DHT22;2463;49.948;8.472;2022-08-02T12:45:26;36.20;59.00
4896;DHT22;2463;49.948;8.472;2022-08-02T12:48:07;36.50;58.20
4896;DHT22;2463;49.948;8.472;2022-08-02T12:50:35;36.80;58.70
4896;DHT22;2463;49.948;8.472;2022-08-02T12:53:13;37.10;57.80
4896;DHT22;2463;49.948;8.472;2022-08-02T12:58:29;37.00;55.40
4896;DHT22;2463;49.948;8.472;2022-08-02T13:00:58;36.90;55.90
4896;DHT22;2463;49.948;8.472;2022-08-02T13:03:26;36.60;53.60
4896;DHT22;2463;49.948;8.472;2022-08-02T13:06:12;36.40;54.20
4896;DHT22;2463;49.948;8.472;2022-08-02T13:08:59;36.00;54.40
4896;DHT22;2463;49.948;8.472;2022-08-02T13:11:27;35.90;56.80
4896;DHT22;2463;49.948;8.472;2022-08-02T13:13:54;36.10;56.90
4896;DHT22;2463;49.948;8.472;2022-08-02T13:16:22;36.40;57.90
4896;DHT22;2463;49.948;8.472;2022-08-02T13:18:57;36.80;59.40
4896;DHT22;2463;49.948;8.472;2022-08-02T13:21:23;37.10;58.20
4896;DHT22;2463;49.948;8.472;2022-08-02T13:24:11;37.30;58.40
4896;DHT22;2463;49.948;8.472;2022-08-02T13:27:01;37.40;56.50
4896;DHT22;2463;49.948;8.472;2022-08-02T13:29:37;37.60;55.80
4896;DHT22;2463;49.948;8.472;2022-08-02T13:32:04;37.60;55.00
4896;DHT22;2463;49.948;8.472;2022-08-02T13:34:31;37.70;54.50
4896;DHT22;2463;49.948;8.472;2022-08-02T13:36:58;37.60;52.70
4896;DHT22;2463;49.948;8.472;2022-08-02T13:39:24;37.60;53.50
4896;DHT22;2463;49.948;8.472;2022-08-02T13:41:51;37.60;53.50
4896;DHT22;2463;49.948;8.472;2022-08-02T13:44:18;37.60;52.90
4896;DHT22;2463;49.948;8.472;2022-08-02T13:46:45;37.60;55.00
4896;DHT22;2463;49.948;8.472;2022-08-02T13:49:13;37.30;53.60
4896;DHT22;2463;49.948;8.472;2022-08-02T13:51:45;37.20;52.30
4896;DHT22;2463;49.948;8.472;2022-08-02T13:54:13;37.00;53.00
4896;DHT22;2463;49.948;8.472;2022-08-02T13:56:40;36.30;51.50
4896;DHT22;2463;49.948;8.472;2022-08-02T13:59:07;35.70;52.70
4896;DHT22;2463;49.948;8.472;2022-08-02T14:01:54;35.10;52.80
4896;DHT22;2463;49.948;8.472;2022-08-02T14:04:22;35.10;53.60
4896;DHT22;2463;49.948;8.472;2022-08-02T14:06:49;34.80;52.60
4896;DHT22;2463;49.948;8.472;2022-08-02T14:09:16;34.60;53.60
4896;DHT22;2463;49.948;8.472;2022-08-02T14:11:44;34.60;56.70
4896;DHT22;2463;49.948;8.472;2022-08-02T14:14:11;34.50;53.60
4896;DHT22;2463;49.948;8.472;2022-08-02T14:16:45;34.20;57.10
4896;DHT22;2463;49.948;8.472;2022-08-02T14:19:12;34.20;56.10
4896;DHT22;2463;49.948;8.472;2022-08-02T14:21:45;34.40;54.60
4896;DHT22;2463;49.948;8.472;2022-08-02T14:24:15;34.50;55.50
4896;DHT22;2463;49.948;8.472;2022-08-02T14:26:42;34.30;55.40
4896;DHT22;2463;49.948;8.472;2022-08-02T14:29:09;34.10;54.90
4896;DHT22;2463;49.948;8.472;2022-08-02T14:31:36;33.90;54.30
4896;DHT22;2463;49.948;8.472;2022-08-02T14:34:09;33.80;54.70
4896;DHT22;2463;49.948;8.472;2022-08-02T14:36:37;33.80;54.70
4896;DHT22;2463;49.948;8.472;2022-08-02T14:39:04;33.90;55.00
4896;DHT22;2463;49.948;8.472;2022-08-02T14:41:31;34.10;56.50
4896;DHT22;2463;49.948;8.472;2022-08-02T14:44:19;34.30;55.60
4896;DHT22;2463;49.948;8.472;2022-08-02T14:46:46;34.30;53.10
4896;DHT22;2463;49.948;8.472;2022-08-02T14:49:17;34.20;54.10
4896;DHT22;2463;49.948;8.472;2022-08-02T14:51:52;34.10;54.40
4896;DHT22;2463;49.948;8.472;2022-08-02T14:54:20;34.20;56.00
4896;DHT22;2463;49.948;8.472;2022-08-02T14:57:00;34.30;55.80
4896;DHT22;2463;49.948;8.472;2022-08-02T14:59:28;34.30;55.60
4896;DHT22;2463;49.948;8.472;2022-08-02T15:01:55;34.20;52.60
4896;DHT22;2463;49.948;8.472;2022-08-02T15:04:22;34.10;51.90
4896;DHT22;2463;49.948;8.472;2022-08-02T15:06:49;34.00;54.90
4896;DHT22;2463;49.948;8.472;2022-08-02T15:09:16;34.00;56.60
4896;DHT22;2463;49.948;8.472;2022-08-02T15:11:43;34.10;56.30
4896;DHT22;2463;49.948;8.472;2022-08-02T15:14:14;34.10;57.80
4896;DHT22;2463;49.948;8.472;2022-08-02T15:16:42;34.10;56.80
4896;DHT22;2463;49.948;8.472;2022-08-02T15:19:22;34.10;54.50
4896;DHT22;2463;49.948;8.472;2022-08-02T15:22:06;34.20;53.60
4896;DHT22;2463;49.948;8.472;2022-08-02T15:24:33;34.20;55.30
4896;DHT22;2463;49.948;8.472;2022-08-02T15:27:00;34.20;52.40
4896;DHT22;2463;49.948;8.472;2022-08-02T15:29:26;34.20;54.40
4896;DHT22;2463;49.948;8.472;2022-08-02T15:31:53;34.20;55.90
4896;DHT22;2463;49.948;8.472;2022-08-02T15:34:20;34.20;53.80
4896;DHT22;2463;49.948;8.472;2022-08-02T15:36:46;34.00;57.30
4896;DHT22;2463;49.948;8.472;2022-08-02T15:39:13;33.90;55.40
4896;DHT22;2463;49.948;8.472;2022-08-02T15:41:40;33.80;56.40
4896;DHT22;2463;49.948;8.472;2022-08-02T15:44:07;33.70;57.40
4896;DHT22;2463;49.948;8.472;2022-08-02T15:46:35;33.60;56.10
4896;DHT22;2463;49.948;8.472;2022-08-02T15:49:03;33.60;57.30
4896;DHT22;2463;49.948;8.472;2022-08-02T15:51:30;33.40;54.10
4896;DHT22;2463;49.948;8.472;2022-08-02T15:53:56;33.30;54.60
4896;DHT22;2463;49.948;8.472;2022-08-02T15:56:23;33.10;54.80
4896;DHT22;2463;49.948;8.472;2022-08-02T15:58:50;33.00;58.20
4896;DHT22;2463;49.948;8.472;2022-08-02T16:01:22;32.90;58.80
4896;DHT22;2463;49.948;8.472;2022-08-02T16:03:49;32.80;58.50
4896;DHT22;2463;49.948;8.472;2022-08-02T16:06:16;32.80;57.40
4896;DHT22;2463;49.948;8.472;2022-08-02T16:08:42;32.70;60.80
4896;DHT22;2463;49.948;8.472;2022-08-02T16:11:19;32.70;59.40
4896;DHT22;2463;49.948;8.472;2022-08-02T16:13:46;32.50;57.30
4896;DHT22;2463;49.948;8.472;2022-08-02T16:16:24;32.40;58.70
4896;DHT22;2463;49.948;8.472;2022-08-02T16:18:51;32.50;56.30
4896;DHT22;2463;49.948;8.472;2022-08-02T16:21:18;32.40;56.70
4896;DHT22;2463;49.948;8.472;2022-08-02T16:23:45;32.30;58.90
4896;DHT22;2463;49.948;8.472;2022-08-02T16:26:29;32.20;60.90
4896;DHT22;2463;49.948;8.472;2022-08-02T16:28:57;32.20;57.00
4896;DHT22;2463;49.948;8.472;2022-08-02T16:31:24;32.20;57.40
4896;DHT22;2463;49.948;8.472;2022-08-02T16:33:50;32.20;57.90
4896;DHT22;2463;49.948;8.472;2022-08-02T16:36:25;32.20;56.80
4896;DHT22;2463;49.948;8.472;2022-08-02T16:38:53;32.20;58.00
4896;DHT22;2463;49.948;8.472;2022-08-02T16:41:21;32.30;59.10
4896;DHT22;2463;49.948;8.472;2022-08-02T16:43:48;32.40;57.10
4896;DHT22;2463;49.948;8.472;2022-08-02T16:46:15;32.30;58.40
4896;DHT22;2463;49.948;8.472;2022-08-02T16:48:44;32.40;56.40
4896;DHT22;2463;49.948;8.472;2022-08-02T16:51:17;32.40;59.50
4896;DHT22;2463;49.948;8.472;2022-08-02T16:53:44;32.50;59.60
4896;DHT22;2463;49.948;8.472;2022-08-02T16:56:27;32.50;60.80